Time;durP1;ratioP1;P1;durP2;ratioP2;P2;SDS_P1;SDS_P2;PMS_P1;PMS_P2;Temp;Humidity;BMP_temperature;BMP_pressure;BME280_temperature;BME280_humidity;BME280_pressure;Samples;Min_cycle;Max_cycle;Signal;HPM_P1;HPM_P2
2021/11/11 00:01:53;;;;;;;21.25;14.18;;;22.30;91.00;;;;;;1972814;72;21226;-70
2021/11/11 00:04:24;;;;;;;20.70;14.28;;;22.40;90.70;;;;;;1968758;72;21603;-70
2021/11/11 00:06:59;;;;;;;20.37;13.90;;;22.40;90.50;;;;;;1974251;72;21108;-70
2021/11/11 00:09:28;;;;;;;18.50;14.75;;;22.50;90.60;;;;;;1975925;71;21588;-71
2021/11/11 00:11:59;;;;;;;17.70;14.00;;;22.50;90.60;;;;;;1971485;71;21135;-70
2021/11/11 00:14:30;;;;;;;24.43;16.35;;;22.60;90.60;;;;;;1976546;70;21088;-70
2021/11/11 00:17:01;;;;;;;22.25;15.60;;;22.60;90.60;;;;;;1985016;70;21584;-71
2021/11/11 00:19:32;;;;;;;25.82;17.05;;;22.70;90.70;;;;;;1965590;72;21154;-70
2021/11/11 00:22:03;;;;;;;24.72;16.02;;;22.70;90.60;;;;;;1962211;71;21035;-69
2021/11/11 00:24:34;;;;;;;27.70;18.67;;;22.70;90.50;;;;;;1964587;72;21595;-70
2021/11/11 00:27:05;;;;;;;22.27;16.00;;;22.70;90.60;;;;;;1969607;72;21139;-70
2021/11/11 00:29:36;;;;;;;22.77;16.10;;;22.80;90.60;;;;;;1970734;72;21552;-70
2021/11/11 00:32:08;;;;;;;27.13;16.70;;;22.80;90.60;;;;;;1957059;72;21125;-70
2021/11/11 00:34:40;;;;;;;24.10;17.10;;;22.90;90.40;;;;;;1972085;72;21629;-70
2021/11/11 00:37:11;;;;;;;29.77;20.85;;;22.90;90.50;;;;;;1985631;72;21173;-70
2021/11/11 00:39:41;;;;;;;28.98;17.82;;;22.90;90.40;;;;;;1983036;71;21640;-70
2021/11/11 00:42:12;;;;;;;27.07;18.40;;;23.00;90.50;;;;;;1983102;72;21796;-70
2021/11/11 00:44:43;;;;;;;32.08;20.15;;;23.00;90.60;;;;;;1970868;72;21633;-70
2021/11/11 00:47:15;;;;;;;25.37;18.80;;;23.00;90.60;;;;;;1962552;72;21166;-70
2021/11/11 00:49:47;;;;;;;25.32;19.30;;;23.00;90.70;;;;;;1968886;71;21116;-69
2021/11/11 00:52:18;;;;;;;27.25;20.12;;;23.10;90.80;;;;;;1962485;71;21258;-71
2021/11/11 00:54:48;;;;;;;30.45;20.48;;;23.20;90.90;;;;;;1961045;72;21190;-71
2021/11/11 00:57:19;;;;;;;30.25;20.62;;;23.20;90.90;;;;;;1964641;72;21551;-72
2021/11/11 00:59:50;;;;;;;30.37;20.62;;;23.20;90.90;;;;;;1962057;72;21164;-70
2021/11/11 01:02:21;;;;;;;29.35;21.95;;;23.30;91.00;;;;;;1962895;71;21084;-71
2021/11/11 01:04:52;;;;;;;33.00;23.02;;;23.30;91.00;;;;;;1977564;71;21178;-70
2021/11/11 01:07:23;;;;;;;29.65;21.35;;;23.40;90.80;;;;;;1974349;71;21073;-71
2021/11/11 01:09:55;;;;;;;32.10;23.00;;;23.40;90.90;;;;;;1974844;72;21628;-70
2021/11/11 01:12:26;;;;;;;30.35;21.97;;;23.40;90.90;;;;;;1965728;71;21655;-71
2021/11/11 01:14:56;;;;;;;30.35;21.62;;;23.50;90.70;;;;;;1969757;72;21541;-70
2021/11/11 01:17:28;;;;;;;28.27;19.35;;;23.50;90.60;;;;;;1975845;71;21581;-70
2021/11/11 01:19:59;;;;;;;33.95;21.68;;;23.50;91.00;;;;;;1980299;72;21564;-70
2021/11/11 01:22:29;;;;;;;27.52;20.12;;;23.60;90.70;;;;;;1966223;71;21175;-70
2021/11/11 01:25:00;;;;;;;26.10;19.02;;;23.60;90.40;;;;;;1967964;72;21229;-70
2021/11/11 01:27:32;;;;;;;31.62;21.33;;;23.60;90.20;;;;;;1971256;72;21112;-70
2021/11/11 01:30:03;;;;;;;27.77;18.50;;;23.70;90.40;;;;;;1964718;72;21585;-70
2021/11/11 01:32:34;;;;;;;25.30;17.60;;;23.80;90.10;;;;;;1980222;72;21404;-70
2021/11/11 01:35:07;;;;;;;22.87;16.50;;;23.90;90.10;;;;;;1967669;72;21113;-71
2021/11/11 01:37:38;;;;;;;22.45;14.87;;;23.90;90.00;;;;;;1974184;70;21100;-71
2021/11/11 01:40:10;;;;;;;23.15;13.95;;;24.10;89.20;;;;;;1970931;72;21739;-72
2021/11/11 01:42:43;;;;;;;20.60;15.10;;;24.10;87.20;;;;;;1969250;71;21519;-70
2021/11/11 01:45:18;;;;;;;20.17;13.55;;;24.10;87.20;;;;;;1970272;72;21159;-71
2021/11/11 01:47:47;;;;;;;17.90;12.70;;;24.20;86.70;;;;;;1977777;72;21575;-70
2021/11/11 01:50:18;;;;;;;15.20;11.75;;;24.30;87.10;;;;;;1968205;72;21225;-69
2021/11/11 01:52:49;;;;;;;18.32;12.58;;;24.30;85.30;;;;;;1972073;71;21520;-69
2021/11/11 01:55:21;;;;;;;17.12;11.28;;;24.40;84.60;;;;;;1969807;72;21167;-71
2021/11/11 01:57:52;;;;;;;17.52;12.37;;;24.40;85.20;;;;;;1962254;72;21522;-71
2021/11/11 02:00:28;;;;;;;16.85;11.43;;;24.50;84.60;;;;;;1955509;71;21113;-72
2021/11/11 02:03:03;;;;;;;19.37;11.22;;;24.60;84.50;;;;;;1973684;71;21123;-71
2021/11/11 02:05:35;;;;;;;21.73;11.53;;;24.60;83.20;;;;;;1967211;72;21151;-70
2021/11/11 02:08:07;;;;;;;16.57;10.45;;;24.70;82.00;;;;;;1971547;71;21696;-71
2021/11/11 02:10:39;;;;;;;14.75;10.58;;;24.70;82.60;;;;;;1962838;72;21174;-70
2021/11/11 02:13:11;;;;;;;14.95;9.93;;;24.80;81.50;;;;;;1969794;71;21190;-70
2021/11/11 02:15:42;;;;;;;12.90;8.80;;;24.90;80.70;;;;;;1962950;71;21152;-71
2021/11/11 02:18:13;;;;;;;11.75;9.05;;;24.90;78.30;;;;;;1970150;72;21083;-72
2021/11/11 02:20:45;;;;;;;17.20;10.18;;;24.90;79.00;;;;;;1976037;71;21917;-71
2021/11/11 02:23:19;;;;;;;13.22;8.70;;;25.00;78.80;;;;;;1972167;72;21124;-71
2021/11/11 02:25:53;;;;;;;15.03;9.53;;;25.00;78.70;;;;;;1972352;72;21565;-71
2021/11/11 02:28:25;;;;;;;14.30;9.08;;;25.10;78.30;;;;;;1977478;71;21588;-85
2021/11/11 02:30:56;;;;;;;16.73;9.03;;;25.10;77.80;;;;;;1979539;72;21057;-82
2021/11/11 02:33:28;;;;;;;13.58;8.78;;;25.10;78.10;;;;;;1972873;71;21611;-82
2021/11/11 02:35:59;;;;;;;16.77;10.10;;;25.30;77.50;;;;;;1967895;72;21325;-84
2021/11/11 02:38:30;;;;;;;15.30;10.03;;;25.30;78.20;;;;;;1971102;72;21815;-81
2021/11/11 02:41:02;;;;;;;14.15;8.83;;;25.30;77.90;;;;;;1980118;72;21053;-83
2021/11/11 02:43:33;;;;;;;11.05;7.97;;;25.40;76.70;;;;;;1953949;72;21133;-82
2021/11/11 02:46:04;;;;;;;13.20;7.37;;;25.40;76.10;;;;;;1970846;72;21573;-83
2021/11/11 02:48:34;;;;;;;14.70;7.97;;;25.50;75.60;;;;;;1973124;72;21112;-82
2021/11/11 02:51:05;;;;;;;11.25;8.15;;;25.50;75.90;;;;;;1980930;72;21185;-83
2021/11/11 02:53:38;;;;;;;9.25;7.12;;;25.50;75.60;;;;;;1973736;70;21049;-83
2021/11/11 02:56:09;;;;;;;11.40;7.65;;;25.60;75.30;;;;;;1980764;71;21749;-82
2021/11/11 02:58:41;;;;;;;12.37;7.97;;;25.70;75.10;;;;;;1981068;71;21073;-82
2021/11/11 03:01:46;;;;;;;11.45;7.62;;;25.80;75.20;;;;;;1978480;72;21159;-82
2021/11/11 03:04:16;;;;;;;14.63;8.28;;;25.80;75.10;;;;;;1941035;72;21180;-81
2021/11/11 03:06:47;;;;;;;11.75;8.35;;;25.90;76.10;;;;;;1976516;72;21138;-82
2021/11/11 03:09:18;;;;;;;11.55;8.15;;;25.90;75.90;;;;;;1985879;71;21687;-82
2021/11/11 03:11:51;;;;;;;12.60;7.42;;;26.00;76.00;;;;;;1974292;71;21163;-82
2021/11/11 03:14:22;;;;;;;12.60;7.85;;;26.10;74.80;;;;;;1971349;72;21113;-83
2021/11/11 03:16:53;;;;;;;14.85;7.95;;;26.20;74.80;;;;;;1956746;72;21125;-82
2021/11/11 03:19:23;;;;;;;10.25;7.20;;;26.20;75.00;;;;;;1973398;72;21125;-82
2021/11/11 03:21:54;;;;;;;9.98;6.92;;;26.30;73.80;;;;;;1971021;72;21209;-84
2021/11/11 03:24:25;;;;;;;8.63;7.00;;;26.40;73.90;;;;;;1971176;72;21053;-83
2021/11/11 03:26:56;;;;;;;11.45;6.67;;;26.50;73.80;;;;;;1978199;72;21097;-83
2021/11/11 03:29:27;;;;;;;8.90;6.33;;;26.60;73.40;;;;;;1971752;72;21194;-84
2021/11/11 03:31:59;;;;;;;8.75;5.72;;;26.60;73.10;;;;;;1977254;71;21190;-83
2021/11/11 03:34:29;;;;;;;10.35;6.20;;;26.80;72.30;;;;;;1966887;72;21098;-83
2021/11/11 03:37:00;;;;;;;10.13;7.00;;;26.80;71.90;;;;;;1969430;72;21128;-83
2021/11/11 03:39:32;;;;;;;10.18;6.53;;;26.90;71.90;;;;;;1978202;71;21162;-83
2021/11/11 03:42:06;;;;;;;7.90;6.50;;;27.00;71.80;;;;;;1974684;72;21132;-84
2021/11/11 03:44:38;;;;;;;12.37;6.03;;;27.10;71.70;;;;;;1966751;72;21125;-83
2021/11/11 03:47:09;;;;;;;10.10;6.60;;;27.20;71.80;;;;;;1970131;71;21156;-84
2021/11/11 03:49:41;;;;;;;10.25;7.00;;;;;;;;;;1966801;72;21038;-83
2021/11/11 03:52:12;;;;;;;10.45;6.87;;;27.40;70.40;;;;;;1967042;72;21168;-82
2021/11/11 03:54:43;;;;;;;11.03;6.28;;;27.50;70.90;;;;;;1973370;72;21104;-80
2021/11/11 03:57:15;;;;;;;10.53;6.97;;;27.60;70.10;;;;;;1963486;72;21196;-81
2021/11/11 03:59:46;;;;;;;10.45;6.72;;;27.70;70.00;;;;;;1971172;72;21103;-83
2021/11/11 04:02:23;;;;;;;11.70;6.62;;;27.80;69.70;;;;;;1966857;72;21594;-79
2021/11/11 04:04:49;;;;;;;8.28;6.50;;;27.90;69.30;;;;;;1974568;72;21088;-80
2021/11/11 04:07:21;;;;;;;10.05;6.50;;;28.00;69.30;;;;;;1996421;71;21207;-82
2021/11/11 04:09:55;;;;;;;10.72;6.78;;;28.00;68.90;;;;;;1963368;72;21194;-81
2021/11/11 04:12:26;;;;;;;11.97;6.40;;;28.10;68.90;;;;;;1975243;72;21096;-81
2021/11/11 04:14:57;;;;;;;8.85;5.50;;;28.20;68.90;;;;;;1964549;71;21148;-82
2021/11/11 04:17:28;;;;;;;8.78;5.70;;;28.20;68.10;;;;;;1974263;72;21186;-82
2021/11/11 04:19:58;;;;;;;10.85;5.95;;;28.30;67.60;;;;;;1970220;72;21094;-82
2021/11/11 04:22:29;;;;;;;11.05;6.40;;;28.30;68.00;;;;;;1964679;72;21179;-82
2021/11/11 04:25:02;;;;;;;9.98;6.42;;;28.30;67.90;;;;;;1964862;73;21587;-81
2021/11/11 04:30:13;;;;;;;9.50;5.62;;;28.40;67.90;;;;;;1970433;72;21626;-82
2021/11/11 04:32:37;;;;;;;9.58;5.67;;;28.50;67.20;;;;;;1963945;73;21182;-81
2021/11/11 04:35:10;;;;;;;10.25;5.90;;;28.50;66.50;;;;;;1965102;72;21197;-81
2021/11/11 04:37:49;;;;;;;7.70;5.12;;;28.60;67.00;;;;;;1985609;71;21116;-82
2021/11/11 04:40:34;;;;;;;7.95;5.75;;;28.70;66.60;;;;;;1979751;72;21081;-82
2021/11/11 04:50:39;;;;;;;10.53;6.55;;;28.90;66.40;;;;;;1964666;73;21123;-81
2021/11/11 05:05:33;;;;;;;7.05;3.67;;;29.40;63.80;;;;;;1978801;72;21261;-82
2021/11/11 05:08:04;;;;;;;7.80;4.12;;;29.50;61.60;;;;;;1989942;71;21867;-81
2021/11/11 05:10:36;;;;;;;6.12;3.60;;;29.50;61.60;;;;;;1971919;72;21161;-82
2021/11/11 05:13:07;;;;;;;6.12;3.30;;;29.50;61.30;;;;;;1959631;72;21594;-81
2021/11/11 05:15:39;;;;;;;5.58;3.75;;;29.50;61.50;;;;;;1967676;72;21481;-82
2021/11/11 05:18:10;;;;;;;7.03;3.70;;;29.40;61.10;;;;;;1974250;72;21179;-82
2021/11/11 05:20:40;;;;;;;7.90;3.77;;;29.50;61.80;;;;;;1985255;72;21218;-80
2021/11/11 05:23:12;;;;;;;7.45;4.12;;;29.60;62.30;;;;;;1974344;71;21659;-81
2021/11/11 05:25:43;;;;;;;8.53;4.05;;;29.70;61.40;;;;;;1960624;72;21150;-82
2021/11/11 05:28:15;;;;;;;5.87;3.58;;;29.80;60.70;;;;;;1940959;73;21157;-81
2021/11/11 05:30:46;;;;;;;6.97;3.87;;;29.80;60.70;;;;;;1901965;74;21602;-81
2021/11/11 05:33:18;;;;;;;4.78;4.10;;;29.90;60.00;;;;;;1915509;74;21125;-82
2021/11/11 05:35:49;;;;;;;6.85;3.55;;;29.90;60.30;;;;;;1920104;72;22067;-81
2021/11/11 05:38:20;;;;;;;5.10;3.98;;;29.90;60.40;;;;;;1937511;74;21139;-81
2021/11/11 05:40:51;;;;;;;6.05;4.17;;;30.00;61.00;;;;;;1926143;73;21145;-81
2021/11/11 05:43:23;;;;;;;9.75;4.37;;;30.00;60.80;;;;;;1944589;72;21544;-83
2021/11/11 05:45:55;;;;;;;5.45;3.70;;;30.00;60.60;;;;;;1946381;73;21561;-82
2021/11/11 05:48:27;;;;;;;7.17;3.90;;;30.10;60.50;;;;;;1939306;73;21175;-81
2021/11/11 05:50:57;;;;;;;7.10;4.33;;;30.10;60.20;;;;;;1892957;75;21192;-81
2021/11/11 05:53:28;;;;;;;8.50;4.40;;;30.00;60.20;;;;;;1901206;75;21088;-82
2021/11/11 05:55:59;;;;;;;8.03;4.55;;;30.10;60.30;;;;;;1940185;72;21107;-81
2021/11/11 05:58:30;;;;;;;6.08;4.15;;;30.10;59.90;;;;;;1938278;74;21071;-81
2021/11/11 06:01:00;;;;;;;6.20;4.30;;;30.10;60.60;;;;;;1903887;75;21173;-81
2021/11/11 06:03:32;;;;;;;8.75;4.22;;;30.10;60.70;;;;;;1922168;74;21107;-82
2021/11/11 06:06:03;;;;;;;8.93;4.25;;;30.10;60.20;;;;;;1869386;75;21105;-82
2021/11/11 06:08:33;;;;;;;7.05;4.55;;;30.20;60.30;;;;;;1933852;74;21065;-81
2021/11/11 06:11:04;;;;;;;6.55;4.42;;;30.10;59.90;;;;;;1948839;73;21507;-81
2021/11/11 06:13:36;;;;;;;9.60;4.15;;;30.10;60.90;;;;;;1943177;73;21196;-82
2021/11/11 06:16:06;;;;;;;9.45;4.80;;;30.10;60.00;;;;;;1939964;74;21095;-83
2021/11/11 06:18:38;;;;;;;9.28;4.53;;;30.20;60.30;;;;;;1924411;74;21627;-81
2021/11/11 06:21:10;;;;;;;8.00;4.75;;;30.20;60.90;;;;;;1911058;74;21179;-82
2021/11/11 06:23:56;;;;;;;7.20;4.35;;;30.20;60.30;;;;;;1936703;73;21156;-82
2021/11/11 06:26:28;;;;;;;6.58;4.65;;;30.20;60.60;;;;;;1917676;74;21125;-83
2021/11/11 06:29:00;;;;;;;8.78;4.53;;;30.30;60.90;;;;;;1947321;72;21162;-83
2021/11/11 06:31:31;;;;;;;8.40;4.60;;;30.30;61.60;;;;;;1922419;74;21148;-82
2021/11/11 06:34:02;;;;;;;7.20;4.65;;;30.30;60.50;;;;;;1922361;74;21225;-81
2021/11/11 06:36:33;;;;;;;8.15;4.53;;;30.40;60.70;;;;;;1922616;72;21639;-82
2021/11/11 06:39:05;;;;;;;5.97;4.45;;;30.40;60.50;;;;;;1935780;72;21583;-82
2021/11/11 06:41:36;;;;;;;6.70;4.42;;;30.40;60.80;;;;;;1954795;72;21217;-81
2021/11/11 06:44:07;;;;;;;9.15;4.22;;;30.40;60.30;;;;;;1918542;73;21209;-82
2021/11/11 06:46:38;;;;;;;8.38;4.55;;;30.40;60.80;;;;;;1942899;71;21116;-82
2021/11/11 06:49:10;;;;;;;6.62;4.17;;;30.40;61.60;;;;;;1916589;73;21168;-81
2021/11/11 06:51:41;;;;;;;7.22;4.15;;;30.40;61.10;;;;;;1953913;72;21139;-83
2021/11/11 06:54:12;;;;;;;6.60;4.03;;;30.40;60.90;;;;;;1989214;71;21498;-82
2021/11/11 06:56:43;;;;;;;9.28;4.70;;;30.40;60.60;;;;;;1926632;74;21171;-83
2021/11/11 06:59:14;;;;;;;7.70;3.70;;;30.40;60.80;;;;;;1922943;73;21457;-82
2021/11/11 07:01:45;;;;;;;7.87;4.00;;;30.40;60.90;;;;;;1946973;73;21100;-80
2021/11/11 07:04:17;;;;;;;6.08;3.85;;;30.40;60.60;;;;;;1888800;73;21662;-81
2021/11/11 07:06:49;;;;;;;6.45;4.17;;;30.40;60.20;;;;;;1882323;75;21588;-80
2021/11/11 07:09:20;;;;;;;5.67;3.67;;;30.40;60.40;;;;;;1927223;73;21199;-81
2021/11/11 07:11:59;;;;;;;7.42;4.05;;;30.50;61.10;;;;;;1954182;71;21119;-83
2021/11/11 07:14:36;;;;;;;5.45;3.80;;;30.40;60.90;;;;;;1883395;75;21647;-82
2021/11/11 07:17:08;;;;;;;7.25;3.83;;;30.40;60.60;;;;;;1871592;75;21208;-80
2021/11/11 07:19:39;;;;;;;7.87;3.72;;;30.40;60.40;;;;;;1886769;75;21321;-81
2021/11/11 07:22:11;;;;;;;6.67;3.67;;;30.40;60.90;;;;;;1836966;76;21739;-81
2021/11/11 07:24:41;;;;;;;7.62;3.40;;;30.40;60.20;;;;;;1826551;77;21111;-82
2021/11/11 07:27:12;;;;;;;5.80;3.85;;;30.30;60.50;;;;;;1871565;75;21590;-80
2021/11/11 07:29:43;;;;;;;8.38;4.25;;;30.30;60.90;;;;;;1828736;77;21972;-80
2021/11/11 07:32:13;;;;;;;5.70;3.50;;;30.20;60.40;;;;;;1870951;76;21942;-81
2021/11/11 07:34:44;;;;;;;6.87;3.62;;;30.20;60.60;;;;;;1826788;77;21207;-80
2021/11/11 07:37:15;;;;;;;4.95;3.08;;;30.30;60.70;;;;;;1875416;76;21206;-79
2021/11/11 07:39:46;;;;;;;7.58;3.35;;;30.20;60.40;;;;;;1823419;77;21238;-81
2021/11/11 07:42:19;;;;;;;5.28;3.65;;;30.20;61.20;;;;;;1877986;76;21170;-79
2021/11/11 07:44:51;;;;;;;8.63;3.85;;;30.20;61.00;;;;;;1873165;75;21278;-80
2021/11/11 07:47:27;;;;;;;10.38;5.87;;;30.10;60.20;;;;;;1853742;76;21344;-81
2021/11/11 07:49:56;;;;;;;6.72;3.47;;;30.10;60.90;;;;;;1830479;77;21307;-81
2021/11/11 07:52:38;;;;;;;9.83;3.35;;;30.10;60.30;;;;;;1888843;74;21262;-80
2021/11/11 07:55:09;;;;;;;8.38;3.80;;;30.10;60.00;;;;;;1929081;73;21154;-81
2021/11/11 07:57:41;;;;;;;10.03;4.03;;;30.10;60.00;;;;;;1908357;74;21220;-82
2021/11/11 08:00:14;;;;;;;6.15;3.15;;;30.10;61.00;;;;;;1934550;73;21129;-81
2021/11/11 08:02:46;;;;;;;5.97;3.80;;;30.10;59.90;;;;;;1888887;74;21245;-69
2021/11/11 08:05:19;;;;;;;9.93;6.20;;;30.10;60.40;;;;;;1923431;72;21196;-69
2021/11/11 08:07:51;;;;;;;8.08;4.28;;;30.10;60.30;;;;;;1966528;72;21226;-70
2021/11/11 08:10:23;;;;;;;10.78;4.50;;;30.10;60.20;;;;;;1969245;71;21139;-70
2021/11/11 08:12:54;;;;;;;11.10;3.77;;;30.10;60.30;;;;;;1975782;72;21084;-69
2021/11/11 08:15:25;;;;;;;5.78;3.20;;;30.10;60.40;;;;;;1963641;71;21565;-70
2021/11/11 08:17:58;;;;;;;6.05;3.30;;;30.10;59.90;;;;;;1969490;71;21125;-70
2021/11/11 08:20:28;;;;;;;8.93;4.70;;;30.10;60.40;;;;;;1963006;71;21569;-69
2021/11/11 08:22:59;;;;;;;7.53;3.80;;;30.00;60.60;;;;;;1963768;71;21119;-70
2021/11/11 08:25:30;;;;;;;5.92;4.20;;;30.00;60.50;;;;;;1909463;72;21103;-70
2021/11/11 08:28:01;;;;;;;9.95;3.90;;;30.00;60.60;;;;;;1930018;72;21461;-71
2021/11/11 08:30:32;;;;;;;4.75;3.42;;;30.00;60.70;;;;;;1938223;73;21154;-69
2021/11/11 08:33:03;;;;;;;8.73;3.47;;;30.00;61.10;;;;;;1939964;73;21114;-70
2021/11/11 08:35:35;;;;;;;8.70;3.90;;;30.00;60.80;;;;;;1887634;76;21612;-70
2021/11/11 08:38:06;;;;;;;10.50;3.65;;;30.00;61.30;;;;;;1890100;74;21158;-70
2021/11/11 08:40:37;;;;;;;5.30;3.52;;;29.90;61.30;;;;;;1938464;72;21225;-70
2021/11/11 08:43:08;;;;;;;6.03;3.12;;;29.90;60.90;;;;;;1939708;72;21158;-68
2021/11/11 08:45:39;;;;;;;7.37;4.00;;;29.90;60.90;;;;;;1927232;72;21503;-69
2021/11/11 08:48:11;;;;;;;6.03;3.70;;;29.90;61.80;;;;;;1935030;72;21099;-70
2021/11/11 08:50:42;;;;;;;4.37;3.60;;;29.90;61.20;;;;;;1901784;74;21111;-69
2021/11/11 08:53:14;;;;;;;7.92;3.98;;;29.90;61.60;;;;;;1939743;72;21642;-70
2021/11/11 08:55:45;;;;;;;5.92;3.35;;;29.90;61.70;;;;;;1925482;72;21579;-70
2021/11/11 08:58:16;;;;;;;4.40;3.27;;;29.90;61.10;;;;;;1941152;72;21579;-71
2021/11/11 09:00:51;;;;;;;6.35;3.80;;;29.90;60.70;;;;;;1953464;72;21157;-70
2021/11/11 09:03:22;;;;;;;5.20;3.27;;;29.90;61.20;;;;;;1970021;71;21755;-70
2021/11/11 09:05:52;;;;;;;6.50;3.70;;;29.80;60.80;;;;;;1919190;72;21114;-70
2021/11/11 09:08:23;;;;;;;5.20;3.25;;;29.80;60.40;;;;;;1928251;72;21061;-70
2021/11/11 09:10:55;;;;;;;5.22;3.33;;;29.80;60.90;;;;;;1905716;73;21690;-69
2021/11/11 09:13:30;;;;;;;7.40;3.47;;;29.70;61.00;;;;;;1875883;75;21666;-70
2021/11/11 09:16:02;;;;;;;7.22;4.75;;;29.70;61.50;;;;;;1965575;72;21135;-71
2021/11/11 09:18:34;;;;;;;8.03;4.33;;;29.70;61.70;;;;;;1989658;72;21030;-70
2021/11/11 09:21:07;;;;;;;9.03;4.05;;;29.60;61.60;;;;;;1991568;71;21127;-70
2021/11/11 09:23:40;;;;;;;5.78;3.92;;;29.60;61.70;;;;;;2002068;71;21656;-70
2021/11/11 09:26:11;;;;;;;5.45;3.75;;;29.60;61.80;;;;;;1975461;71;21150;-70
2021/11/11 09:28:42;;;;;;;9.03;3.72;;;29.60;61.70;;;;;;1953387;72;21066;-70
2021/11/11 09:31:15;;;;;;;5.65;3.42;;;29.60;62.10;;;;;;1948466;73;21597;-70
2021/11/11 09:33:47;;;;;;;5.75;3.58;;;29.50;61.70;;;;;;1934607;73;21108;-70
2021/11/11 09:36:20;;;;;;;6.42;3.90;;;29.50;62.00;;;;;;1941312;73;21144;-69
2021/11/11 09:38:52;;;;;;;8.08;4.40;;;29.40;62.40;;;;;;1935072;73;21112;-70
2021/11/11 09:41:23;;;;;;;8.03;4.65;;;29.30;62.70;;;;;;1938857;74;21096;-70
2021/11/11 09:43:55;;;;;;;5.92;3.70;;;29.30;62.90;;;;;;1916681;74;21077;-70
2021/11/11 09:46:26;;;;;;;7.28;3.87;;;29.30;63.00;;;;;;1920064;73;21250;-70
2021/11/11 09:48:57;;;;;;;5.95;4.15;;;29.20;62.70;;;;;;1928980;72;21131;-69
2021/11/11 09:51:28;;;;;;;10.95;6.62;;;29.20;64.10;;;;;;1944729;73;21225;-70
2021/11/11 09:59:04;;;;;;;5.10;3.62;;;29.10;63.50;;;;;;1932739;73;21179;-70
2021/11/11 10:01:35;;;;;;;6.20;4.17;;;29.10;63.50;;;;;;1922920;74;21104;-70
2021/11/11 10:04:06;;;;;;;8.43;4.67;;;29.00;63.40;;;;;;1940686;72;21060;-70
2021/11/11 10:06:37;;;;;;;7.00;4.53;;;29.00;63.60;;;;;;1899600;74;21159;-70
2021/11/11 10:09:10;;;;;;;6.65;4.95;;;29.00;63.80;;;;;;1862412;77;21186;-70
2021/11/11 10:11:50;;;;;;;8.45;4.20;;;29.00;64.00;;;;;;1864100;77;21092;-70
2021/11/11 10:14:18;;;;;;;9.30;4.62;;;29.00;64.00;;;;;;1928645;72;21673;-69
2021/11/11 10:16:50;;;;;;;8.90;4.78;;;29.00;64.20;;;;;;1906663;73;21699;-69
2021/11/11 10:19:22;;;;;;;10.08;6.00;;;28.90;64.40;;;;;;1936745;72;21154;-69
2021/11/11 10:21:58;;;;;;;12.63;5.92;;;28.90;64.40;;;;;;1938231;72;21521;-69
2021/11/11 10:24:29;;;;;;;8.80;5.55;;;28.90;64.70;;;;;;1877414;76;21065;-70
2021/11/11 10:27:02;;;;;;;9.90;5.12;;;28.80;64.80;;;;;;1878470;73;21110;-70
2021/11/11 10:29:36;;;;;;;9.60;5.50;;;28.80;65.30;;;;;;1908774;73;21166;-70
2021/11/11 10:32:09;;;;;;;10.75;5.70;;;28.80;65.60;;;;;;1910718;73;21612;-70
2021/11/11 10:34:42;;;;;;;9.40;5.75;;;28.80;66.10;;;;;;1941761;73;21143;-70
2021/11/11 10:37:13;;;;;;;12.78;5.80;;;28.80;66.90;;;;;;1935044;73;21580;-70
2021/11/11 10:39:46;;;;;;;10.78;5.97;;;28.70;66.90;;;;;;1939166;73;21116;-70
2021/11/11 10:42:19;;;;;;;8.38;5.90;;;28.70;66.90;;;;;;1947142;72;21119;-70
2021/11/11 10:44:53;;;;;;;12.15;6.60;;;28.60;67.20;;;;;;1948194;72;21084;-70
2021/11/11 10:47:26;;;;;;;11.97;6.90;;;28.60;67.50;;;;;;1950351;72;21678;-69
2021/11/11 10:49:58;;;;;;;16.70;10.98;;;28.50;67.10;;;;;;1986279;72;21740;-70
2021/11/11 10:52:30;;;;;;;14.43;7.20;;;28.50;67.30;;;;;;1987639;71;21097;-70
2021/11/11 10:55:04;;;;;;;8.98;6.15;;;28.50;67.10;;;;;;1978190;72;21128;-70
2021/11/11 10:57:36;;;;;;;11.75;5.92;;;28.40;67.20;;;;;;1947434;71;21092;-70
2021/11/11 11:00:09;;;;;;;15.55;7.75;;;28.40;67.10;;;;;;1904678;75;21623;-70
2021/11/11 11:02:42;;;;;;;11.78;7.05;;;28.40;67.30;;;;;;1943984;72;21116;-70
2021/11/11 11:05:13;;;;;;;15.15;9.48;;;28.30;68.40;;;;;;1939976;73;21163;-71
2021/11/11 11:07:47;;;;;;;20.25;10.10;;;28.30;68.70;;;;;;1948491;72;21587;-70
2021/11/11 11:10:18;;;;;;;25.15;8.83;;;28.20;67.70;;;;;;1962243;71;21148;-69
2021/11/11 11:12:49;;;;;;;14.40;7.92;;;28.20;68.10;;;;;;1931648;73;21116;-70
2021/11/11 11:15:22;;;;;;;12.70;7.53;;;28.20;68.30;;;;;;1921008;73;21084;-71
2021/11/11 11:17:55;;;;;;;11.60;7.62;;;28.10;68.20;;;;;;1913559;73;21053;-70
2021/11/11 11:20:30;;;;;;;16.32;7.80;;;28.10;68.50;;;;;;1904097;73;21116;-70
2021/11/11 11:23:01;;;;;;;12.15;6.62;;;28.10;68.90;;;;;;1919193;73;21110;-69
2021/11/11 11:25:31;;;;;;;11.68;7.40;;;28.00;69.20;;;;;;1903973;73;21144;-70
2021/11/11 11:28:02;;;;;;;12.30;7.22;;;28.00;69.70;;;;;;1905975;73;21606;-70
2021/11/11 11:30:35;;;;;;;13.65;7.30;;;28.00;69.80;;;;;;1960945;71;21114;-70
2021/11/11 11:33:08;;;;;;;12.85;7.75;;;28.00;69.60;;;;;;1974536;71;21099;-70
2021/11/11 11:35:41;;;;;;;14.83;7.12;;;28.00;70.10;;;;;;1966700;71;21758;-71
2021/11/11 11:38:15;;;;;;;14.18;8.08;;;27.90;70.20;;;;;;1966394;71;21135;-69
2021/11/11 11:40:46;;;;;;;13.88;8.78;;;27.90;70.30;;;;;;1928518;72;21192;-70
2021/11/11 11:43:19;;;;;;;19.23;9.38;;;27.90;70.40;;;;;;1928123;72;21115;-69
2021/11/11 11:45:49;;;;;;;16.48;9.18;;;27.90;71.00;;;;;;1895018;74;21145;-70
2021/11/11 11:48:24;;;;;;;16.17;10.40;;;27.90;71.10;;;;;;1945366;72;21159;-70
2021/11/11 11:51:02;;;;;;;16.65;10.08;;;27.80;71.20;;;;;;1940900;72;21170;-70
2021/11/11 11:53:28;;;;;;;22.87;13.03;;;27.80;71.20;;;;;;1935555;73;21606;-70
2021/11/11 11:56:08;;;;;;;24.23;14.15;;;27.80;71.40;;;;;;1938373;72;21142;-70
2021/11/11 11:58:42;;;;;;;24.63;13.28;;;27.80;71.30;;;;;;1948604;72;21238;-70
2021/11/11 12:03:44;;;;;;;25.30;16.20;;;27.70;71.80;;;;;;1961295;71;21217;-70
2021/11/11 12:06:27;;;;;;;25.05;16.10;;;27.70;71.80;;;;;;1928784;73;21073;-70
2021/11/11 12:08:51;;;;;;;29.30;16.75;;;27.70;71.90;;;;;;1926479;72;21132;-70
2021/11/11 12:13:55;;;;;;;32.70;18.67;;;27.70;72.10;;;;;;1930155;72;22181;-70
2021/11/11 12:16:44;;;;;;;27.70;17.57;;;27.70;72.30;;;;;;1941880;73;21639;-70
2021/11/11 12:34:18;;;;;;;27.90;17.60;;;27.60;72.70;;;;;;1938351;72;21121;-70
2021/11/11 12:39:32;;;;;;;24.65;13.10;;;27.60;72.70;;;;;;1885847;75;21225;-70
2021/11/11 12:42:06;;;;;;;29.32;15.43;;;27.60;73.00;;;;;;1864896;75;22100;-70
2021/11/11 12:44:39;;;;;;;24.77;15.80;;;27.60;73.10;;;;;;1886373;74;21689;-69
2021/11/11 12:47:13;;;;;;;23.40;13.65;;;27.50;73.40;;;;;;1887276;75;21171;-69
2021/11/11 12:49:44;;;;;;;19.73;12.50;;;27.50;73.60;;;;;;1855588;76;21240;-69
2021/11/11 12:52:16;;;;;;;21.15;11.55;;;27.50;73.30;;;;;;1865580;75;21077;-70
2021/11/11 12:54:49;;;;;;;25.23;13.08;;;27.50;73.70;;;;;;1873884;76;21535;-71
2021/11/11 12:57:21;;;;;;;23.02;14.47;;;27.50;74.10;;;;;;1858502;75;21121;-70
2021/11/11 12:59:52;;;;;;;22.00;14.23;;;27.40;73.80;;;;;;1874082;75;21246;-71
2021/11/11 13:02:23;;;;;;;20.57;13.38;;;27.40;74.30;;;;;;1863643;75;21109;-70
2021/11/11 13:04:58;;;;;;;27.98;15.45;;;27.40;74.60;;;;;;1863154;75;21372;-70
2021/11/11 13:07:31;;;;;;;26.30;15.25;;;27.40;74.80;;;;;;1954864;72;21172;-69
2021/11/11 13:10:07;;;;;;;23.00;13.50;;;27.40;75.10;;;;;;1945936;72;21275;-69
2021/11/11 13:12:36;;;;;;;28.57;14.70;;;27.30;75.10;;;;;;1952780;72;21111;-69
2021/11/11 13:15:10;;;;;;;27.45;12.95;;;27.30;74.70;;;;;;1950408;72;21151;-80
2021/11/11 13:17:44;;;;;;;21.73;13.25;;;27.30;75.10;;;;;;1951893;72;21068;-79
2021/11/11 13:20:18;;;;;;;31.27;14.35;;;27.30;75.20;;;;;;1934173;72;21066;-80
2021/11/11 13:23:11;;;;;;;22.20;13.15;;;27.20;75.10;;;;;;1933947;73;21191;-79
2021/11/11 13:25:40;;;;;;;24.35;13.50;;;27.20;75.30;;;;;;1945035;72;21899;-79
2021/11/11 13:58:58;;;;;;;22.05;14.28;;;27.00;77.50;;;;;;1953911;72;21163;-79
2021/11/11 15:44:57;;;;;;;23.12;12.30;;;26.70;79.00;;;;;;1979947;72;22065;-79
2021/11/11 16:02:03;;;;;;;22.77;13.08;;;26.60;79.80;;;;;;1942990;73;21178;-79
2021/11/11 16:22:16;;;;;;;18.57;12.47;;;26.50;80.80;;;;;;1939405;72;21197;-79
2021/11/11 16:27:17;;;;;;;24.82;13.45;;;26.40;80.90;;;;;;1921385;73;21658;-79
2021/11/11 16:29:48;;;;;;;22.80;14.40;;;26.40;80.90;;;;;;1925494;72;21159;-79
2021/11/11 16:32:19;;;;;;;21.93;14.60;;;26.40;81.30;;;;;;1951639;71;21286;-79
2021/11/11 16:34:50;;;;;;;23.87;16.07;;;26.40;81.50;;;;;;1962246;72;21137;-79
2021/11/11 16:37:22;;;;;;;23.73;13.85;;;26.30;81.20;;;;;;1954941;70;21713;-78
2021/11/11 16:39:52;;;;;;;23.85;14.65;;;26.30;81.30;;;;;;1952736;72;21111;-79
2021/11/11 16:42:23;;;;;;;22.67;14.23;;;26.30;81.70;;;;;;1959655;71;21139;-78